PADK Airport Information

Runway Information
Runway 05 Length 7790 ft width 200 ft
Elevation 17 ft Threshold 0 ft Heading 61
Runway 23 Length 7790 ft Width 200 ft
Elevation 15 ft Threshold 0 ft Heading 241
Runway 18 Length 7605 ft width 200 ft
Elevation 6 ft Threshold 0 ft Heading 185
Runway 36 Length 7605 ft Width 200 ft
Elevation 4 ft Threshold 0 ft Heading 5
Airport Frequencies
Airport Navaids
Type NDB-DME Name Mount Moffett Frequency 530 KHZ
Type TACAN Name Adak Frequency 113000 KHZ
Airport Weather Information & NOTAM
ADDS - METARS form results

(0855 UTC 24 April 2018)
 
METAR text: PADK 240756Z AUTO 25021G31KT 10SM SCT020 BKN029 OVC050 03/00 A2888 RMK AO2 PK WND 25031/0752 SLP781 T00280000
Conditions at: PADK (ADAK NAS , AK, US) observed 0756 UTC 24 April 2018
Temperature: 2.8°C (37°F)
Dewpoint: 0.0°C (32°F) [RH = 82%]
Pressure (altimeter): 28.88 inches Hg (978.1 mb)
[Sea-level pressure: 978.1 mb]
Winds: from the WSW (250 degrees) at 24 MPH (21 knots; 10.9 m/s)
gusting to 36 MPH (31 knots; 16.1 m/s)
Visibility: 10 or more miles (16+ km)
Ceiling: 2900 feet AGL
Clouds: scattered clouds at 2000 feet AGL
broken clouds at 2900 feet AGL
overcast cloud deck at 5000 feet AGL
Weather: automated observation with no human augmentation;
there may or may not be significant weather present at this time